Impacts METAR Board INFO
IDs:

KMCO - Orlando Intl, FL, US

Updated at: 1019 UTC 19 Nov 2017
Potential Impact None Slight Moderate High
Time18/22Z 18/23Z 19/00Z 19/01Z 19/02Z 19/03Z 19/04Z 19/05Z 19/06Z 19/07Z 19/08Z 19/09Z 19/10Z
VIS10 10 10 10 10 10 10 10 10 10 10 10 10
CIG-- -- -- -- -- -- -- -- -- -- -- -- --
CoverFEWFEWFEWCLRCLRCLRCLRCLRCLRSCTFEWCLRCLR
FltCatVFRVFRVFRVFRVFRVFRVFRVFRVFRVFRVFRVFRVFR
WX--------------------------
WDir1901702200290300002002300200190
WSpd4 4 3 0 5 4 0 0 3 3 0 4 5
WGst-- -- -- -- -- -- -- -- -- -- -- -- --
Raw hourly METARs
KMCO 182153Z 19004KT 10SM FEW060 24/13 A2993 RMK AO2 SLP135 T02390133
KMCO 182253Z 17004KT 10SM FEW060 22/14 A2994 RMK AO2 SLP137 T02170139
KMCO 182353Z 22003KT 10SM FEW060 20/14 A2995 RMK AO2 SLP139 T02000144 10261 20200 53006
KMCO 190053Z 00000KT 10SM CLR 19/14 A2996 RMK AO2 SLP143 T01890144
KMCO 190153Z 29005KT 10SM CLR 19/14 A2997 RMK AO2 SLP145 T01890139
KMCO 190253Z 30004KT 10SM CLR 19/14 A2998 RMK AO2 SLP148 T01890139 51009
KMCO 190353Z 00000KT 10SM CLR 16/13 A2997 RMK AO2 SLP147 T01560133
KMCO 190453Z 00000KT 10SM CLR 16/14 A2997 RMK AO2 SLP145 T01560139 402610133
KMCO 190553Z 20003KT 10SM CLR 14/13 A2996 RMK AO2 SLP144 T01390133 10200 20139 58005
KMCO 190653Z 23003KT 10SM FEW050 SCT160 14/13 A2996 RMK AO2 SLP142 T01390133
KMCO 190753Z 00000KT 10SM FEW050 14/14 A2995 RMK AO2 SLP138 T01440139
KMCO 190853Z 20004KT 10SM CLR 13/13 A2994 RMK AO2 SLP136 T01280128 58008
KMCO 190953Z 19005KT 10SM CLR 14/14 A2993 RMK AO2 SLP133 T01390139